createdAt,value
2018-09-09T00:02:06.314Z,13.50
2018-09-09T00:04:35.626Z,13.60
2018-09-09T00:07:05.103Z,13.50
2018-09-09T00:09:39.709Z,13.50
2018-09-09T00:12:09.086Z,13.50
2018-09-09T00:14:38.402Z,13.40
2018-09-09T00:17:07.695Z,13.40
2018-09-09T00:19:36.983Z,13.40
2018-09-09T00:22:06.322Z,13.40
2018-09-09T00:24:35.696Z,13.30
2018-09-09T00:27:05.456Z,13.40
2018-09-09T00:29:34.742Z,13.30
2018-09-09T00:32:04.032Z,13.30
2018-09-09T00:34:33.405Z,13.10
2018-09-09T00:37:02.674Z,13.10
2018-09-09T00:39:31.960Z,13.10
2018-09-09T00:42:01.160Z,13.10
2018-09-09T00:44:30.521Z,13.10
2018-09-09T00:46:59.825Z,13.10
2018-09-09T00:49:34.204Z,13.00
2018-09-09T00:52:08.492Z,13.00
2018-09-09T00:54:37.816Z,13.00
2018-09-09T00:57:07.450Z,12.90
2018-09-09T00:59:36.706Z,12.90
2018-09-09T01:02:06.030Z,12.90
2018-09-09T01:04:35.368Z,12.90
2018-09-09T01:07:04.652Z,12.90
2018-09-09T01:09:34.759Z,12.90
2018-09-09T01:12:04.926Z,12.90
2018-09-09T01:14:34.970Z,12.80
2018-09-09T01:17:04.245Z,12.80
2018-09-09T01:19:33.575Z,12.70
2018-09-09T01:22:02.906Z,12.70
2018-09-09T01:24:32.285Z,12.70
2018-09-09T01:27:01.531Z,12.70
2018-09-09T01:29:30.812Z,12.70
2018-09-09T01:32:00.119Z,12.70
2018-09-09T01:34:29.365Z,12.70
2018-09-09T01:36:58.674Z,12.70
2018-09-09T01:39:27.884Z,12.70
2018-09-09T01:41:57.314Z,12.70
2018-09-09T01:44:26.615Z,12.60
2018-09-09T01:46:55.897Z,12.60
2018-09-09T01:49:25.166Z,12.60
2018-09-09T01:51:54.486Z,12.40
2018-09-09T01:54:23.744Z,12.30
2018-09-09T01:56:53.120Z,12.30
2018-09-09T01:59:22.358Z,12.30
2018-09-09T02:01:51.682Z,12.20
2018-09-09T02:04:20.942Z,12.20
2018-09-09T02:06:50.216Z,12.20
2018-09-09T02:09:19.472Z,12.10
2018-09-09T02:11:48.760Z,12.10
2018-09-09T02:14:18.032Z,12.10
2018-09-09T02:16:47.354Z,12.00
2018-09-09T02:19:16.588Z,12.00
2018-09-09T02:21:45.931Z,12.00
2018-09-09T02:24:15.288Z,11.90
2018-09-09T02:26:44.626Z,11.90
2018-09-09T02:29:13.819Z,11.80
2018-09-09T02:31:43.070Z,11.80
2018-09-09T02:34:12.334Z,11.80
2018-09-09T02:36:41.647Z,11.70
2018-09-09T02:39:11.456Z,11.70
2018-09-09T02:41:41.277Z,11.60
2018-09-09T02:44:10.762Z,11.50
2018-09-09T02:46:39.994Z,11.50
2018-09-09T02:49:09.294Z,11.50
2018-09-09T02:51:38.526Z,11.50
2018-09-09T02:54:07.760Z,11.50
2018-09-09T02:56:37.051Z,11.40
2018-09-09T02:59:06.453Z,11.40
2018-09-09T03:01:35.746Z,11.40
2018-09-09T03:04:05.036Z,11.30
2018-09-09T03:06:34.293Z,11.30
2018-09-09T03:09:04.202Z,11.30
2018-09-09T03:11:33.555Z,11.30
2018-09-09T03:14:02.805Z,11.30
2018-09-09T03:16:32.150Z,11.30
2018-09-09T03:19:01.478Z,11.30
2018-09-09T03:21:30.747Z,11.30
2018-09-09T03:24:00.035Z,11.30
2018-09-09T03:26:29.322Z,11.30
2018-09-09T03:28:58.614Z,11.20
2018-09-09T03:31:27.842Z,11.10
2018-09-09T03:33:57.154Z,11.10
2018-09-09T03:36:26.424Z,11.10
2018-09-09T03:38:55.829Z,11.10
2018-09-09T03:41:25.140Z,11.00
2018-09-09T03:43:54.545Z,11.00
2018-09-09T03:46:23.823Z,11.00
2018-09-09T03:48:53.139Z,11.00
2018-09-09T03:51:22.444Z,10.90
2018-09-09T03:53:51.714Z,10.90
2018-09-09T03:56:20.943Z,10.90
2018-09-09T03:58:50.296Z,10.90
2018-09-09T04:01:19.544Z,10.90
2018-09-09T04:03:49.482Z,10.80
2018-09-09T04:06:18.743Z,10.70
2018-09-09T04:08:48.058Z,10.70
2018-09-09T04:11:17.414Z,10.70
2018-09-09T04:13:46.710Z,10.70
2018-09-09T04:16:15.952Z,10.70
2018-09-09T04:18:45.245Z,10.70
2018-09-09T04:21:14.496Z,10.70
2018-09-09T04:23:43.723Z,10.70
2018-09-09T04:26:13.027Z,10.80
2018-09-09T04:28:42.251Z,10.70
2018-09-09T04:31:11.482Z,10.80
2018-09-09T04:33:40.795Z,10.80
2018-09-09T04:36:10.149Z,10.80
2018-09-09T04:38:39.489Z,10.80
2018-09-09T04:41:08.762Z,10.80
2018-09-09T04:43:38.134Z,10.80
2018-09-09T04:46:07.494Z,10.70
2018-09-09T04:48:36.766Z,10.80
2018-09-09T04:51:06.018Z,10.80
2018-09-09T04:53:35.362Z,10.80
2018-09-09T04:56:04.643Z,10.70
2018-09-09T04:58:33.917Z,10.70
2018-09-09T05:01:03.146Z,10.60
2018-09-09T05:03:32.408Z,10.70
2018-09-09T05:06:01.672Z,10.70
2018-09-09T05:08:31.048Z,10.70
2018-09-09T05:11:00.366Z,10.60
2018-09-09T05:13:29.619Z,10.60
2018-09-09T05:15:58.983Z,10.60
2018-09-09T05:18:28.351Z,10.50
2018-09-09T05:20:57.735Z,10.60
2018-09-09T05:23:27.023Z,10.60
2018-09-09T05:25:56.301Z,10.60
2018-09-09T05:28:25.575Z,10.60
2018-09-09T05:31:03.063Z,10.60
2018-09-09T05:33:32.340Z,10.60
2018-09-09T05:36:01.674Z,10.60
2018-09-09T05:38:30.955Z,10.60
2018-09-09T05:41:00.162Z,10.70
2018-09-09T05:43:30.638Z,10.70
2018-09-09T05:45:59.966Z,10.70
2018-09-09T05:48:29.234Z,10.70
2018-09-09T05:50:58.522Z,10.70
2018-09-09T05:53:27.771Z,10.70
2018-09-09T05:55:57.058Z,10.70
2018-09-09T05:58:26.430Z,10.70
2018-09-09T06:00:55.709Z,10.80
2018-09-09T06:03:25.088Z,10.80
2018-09-09T06:05:54.418Z,10.80
2018-09-09T06:08:23.740Z,10.80
2018-09-09T06:10:54.276Z,10.80
2018-09-09T06:13:25.136Z,10.80
2018-09-09T06:15:54.413Z,10.90
2018-09-09T06:18:23.674Z,11.00
2018-09-09T06:20:52.969Z,11.10
2018-09-09T06:25:51.099Z,11.20
2018-09-09T06:28:20.445Z,11.40
2018-09-09T06:30:49.736Z,11.50
2018-09-09T06:33:19.004Z,11.50
2018-09-09T06:35:48.241Z,11.50
2018-09-09T06:38:17.476Z,11.50
2018-09-09T06:40:46.774Z,11.60
2018-09-09T06:43:16.065Z,11.70
2018-09-09T06:45:45.413Z,11.70
2018-09-09T06:48:14.679Z,11.80
2018-09-09T06:50:43.966Z,11.90
2018-09-09T06:53:13.203Z,11.90
2018-09-09T06:55:42.578Z,11.90
2018-09-09T06:58:11.825Z,12.00
2018-09-09T07:00:41.094Z,12.10
2018-09-09T07:03:10.337Z,12.20
2018-09-09T07:05:39.758Z,12.30
2018-09-09T07:08:09.080Z,12.40
2018-09-09T07:10:38.368Z,12.60
2018-09-09T07:13:07.683Z,12.70
2018-09-09T07:15:36.946Z,12.70
2018-09-09T07:18:06.263Z,12.70
2018-09-09T07:20:35.564Z,12.80
2018-09-09T07:23:04.859Z,12.90
2018-09-09T07:25:34.190Z,13.00
2018-09-09T07:28:03.604Z,13.20
2018-09-09T07:30:32.870Z,13.50
2018-09-09T07:33:02.111Z,13.60
2018-09-09T07:35:31.374Z,13.70
2018-09-09T07:38:00.702Z,13.80
2018-09-09T07:40:30.020Z,13.90
2018-09-09T07:42:59.306Z,14.10
2018-09-09T07:45:28.550Z,14.20
2018-09-09T07:47:57.799Z,14.30
2018-09-09T07:50:27.118Z,14.40
2018-09-09T07:52:56.365Z,14.60
2018-09-09T07:55:25.654Z,14.60
2018-09-09T07:57:54.946Z,14.70
2018-09-09T08:00:24.336Z,14.80
2018-09-09T08:02:53.589Z,14.90
2018-09-09T08:05:22.899Z,15.00
2018-09-09T08:07:52.174Z,15.10
2018-09-09T08:10:21.417Z,15.30
2018-09-09T08:12:51.119Z,15.30
2018-09-09T08:15:20.475Z,15.50
2018-09-09T08:17:49.818Z,15.70
2018-09-09T08:20:19.103Z,16.10
2018-09-09T08:22:48.423Z,16.40
2018-09-09T08:25:17.681Z,16.70
2018-09-09T08:27:46.986Z,16.90
2018-09-09T08:30:16.343Z,17.40
2018-09-09T08:32:45.638Z,17.70
2018-09-09T08:35:14.982Z,18.00
2018-09-09T08:37:44.303Z,18.30
2018-09-09T08:40:13.562Z,18.60
2018-09-09T08:42:42.806Z,19.10
2018-09-09T08:45:12.076Z,19.40
2018-09-09T08:47:41.582Z,19.80
2018-09-09T08:50:10.938Z,20.00
2018-09-09T08:52:40.243Z,20.20
2018-09-09T08:55:09.686Z,20.40
2018-09-09T08:57:39.007Z,20.80
2018-09-09T09:00:08.389Z,21.10
2018-09-09T09:02:37.702Z,21.60
2018-09-09T09:05:07.142Z,22.00
2018-09-09T09:07:36.479Z,22.30
2018-09-09T09:10:05.896Z,22.60
2018-09-09T09:12:35.167Z,22.80
2018-09-09T09:15:04.576Z,22.80
2018-09-09T09:17:33.886Z,22.80
2018-09-09T09:20:03.216Z,23.00
2018-09-09T09:22:32.547Z,23.10
2018-09-09T09:25:01.863Z,23.30
2018-09-09T09:27:31.202Z,23.40
2018-09-09T09:30:00.637Z,23.40
2018-09-09T09:32:29.977Z,23.70
2018-09-09T09:34:59.429Z,23.60
2018-09-09T09:37:28.642Z,23.90
2018-09-09T09:39:57.978Z,24.00
2018-09-09T09:42:27.229Z,24.10
2018-09-09T09:44:56.530Z,24.20
2018-09-09T09:47:25.802Z,24.60
2018-09-09T09:49:55.114Z,24.70
2018-09-09T09:52:24.436Z,24.80
2018-09-09T09:54:53.758Z,24.80
2018-09-09T09:57:23.020Z,25.10
2018-09-09T09:59:52.370Z,25.40
2018-09-09T10:02:21.676Z,25.50
2018-09-09T10:04:50.966Z,25.90
2018-09-09T10:07:20.213Z,25.90
2018-09-09T10:09:49.578Z,26.10
2018-09-09T10:12:18.872Z,26.40
2018-09-09T10:14:48.155Z,26.70
2018-09-09T10:17:17.409Z,27.00
2018-09-09T10:19:46.718Z,27.00
2018-09-09T10:22:15.933Z,26.90
2018-09-09T10:24:45.207Z,26.40
2018-09-09T10:27:14.603Z,26.40
2018-09-09T10:29:43.942Z,26.40
2018-09-09T10:32:13.330Z,26.40
2018-09-09T10:34:42.638Z,26.40
2018-09-09T10:37:11.926Z,26.20
2018-09-09T10:39:41.189Z,26.10
2018-09-09T10:42:10.658Z,26.40
2018-09-09T10:44:39.937Z,26.40
2018-09-09T10:47:09.246Z,26.20
2018-09-09T10:49:38.576Z,26.40
2018-09-09T10:52:07.922Z,26.20
2018-09-09T10:54:37.160Z,26.50
2018-09-09T10:57:06.464Z,26.60
2018-09-09T10:59:35.731Z,26.40
2018-09-09T11:02:05.150Z,26.50
2018-09-09T11:04:34.376Z,26.50
2018-09-09T11:07:03.843Z,26.50
2018-09-09T11:09:33.114Z,26.40
2018-09-09T11:12:02.430Z,26.60
2018-09-09T11:14:31.798Z,26.60
2018-09-09T11:17:01.059Z,26.50
2018-09-09T11:19:30.313Z,26.50
2018-09-09T11:21:59.611Z,26.60
2018-09-09T11:24:28.768Z,26.50
2018-09-09T11:26:58.131Z,26.60
2018-09-09T11:29:27.412Z,26.50
2018-09-09T11:31:56.878Z,26.60
2018-09-09T11:34:26.208Z,26.60
2018-09-09T11:36:55.518Z,26.60
2018-09-09T11:39:24.816Z,26.70
2018-09-09T11:41:54.224Z,26.60
2018-09-09T11:44:23.491Z,26.40
2018-09-09T11:46:52.805Z,26.60
2018-09-09T11:49:22.058Z,26.40
2018-09-09T11:51:51.261Z,26.30
2018-09-09T11:54:20.488Z,26.50
2018-09-09T11:56:49.774Z,26.90
2018-09-09T11:59:19.042Z,27.10
2018-09-09T12:01:48.389Z,27.20
2018-09-09T12:04:17.695Z,27.50
2018-09-09T12:06:46.975Z,27.30
2018-09-09T12:09:16.242Z,27.50
2018-09-09T12:11:45.482Z,27.70
2018-09-09T12:14:14.787Z,27.80
2018-09-09T12:16:44.055Z,28.20
2018-09-09T12:19:13.290Z,28.10
2018-09-09T12:21:42.620Z,28.30
2018-09-09T12:24:11.838Z,28.40
2018-09-09T12:26:41.107Z,28.90
2018-09-09T12:29:10.366Z,29.20
2018-09-09T12:31:39.618Z,29.30
2018-09-09T12:34:08.899Z,29.50
2018-09-09T12:36:38.200Z,29.30
2018-09-09T12:39:08.259Z,29.00
2018-09-09T12:41:37.949Z,29.30
2018-09-09T12:44:12.356Z,29.70
2018-09-09T12:46:46.695Z,29.90
2018-09-09T12:51:44.666Z,30.40
2018-09-09T12:54:14.006Z,29.70
2018-09-09T12:56:43.201Z,29.70
2018-09-09T12:59:12.496Z,29.80
2018-09-09T13:01:41.780Z,30.40
2018-09-09T13:04:11.024Z,30.60
2018-09-09T13:06:40.303Z,30.00
2018-09-09T13:09:10.259Z,30.30
2018-09-09T13:11:39.461Z,30.50
2018-09-09T13:14:08.712Z,30.10
2018-09-09T13:16:38.022Z,29.90
2018-09-09T13:19:07.343Z,29.90
2018-09-09T13:21:36.642Z,30.20
2018-09-09T13:24:05.994Z,30.70
2018-09-09T13:26:35.291Z,31.30
2018-09-09T13:29:04.602Z,31.30
2018-09-09T13:31:33.778Z,31.70
2018-09-09T13:34:03.099Z,31.70
2018-09-09T13:36:32.360Z,31.80
2018-09-09T13:39:01.612Z,31.20
2018-09-09T13:41:30.890Z,31.30
2018-09-09T13:44:00.301Z,31.20
2018-09-09T13:46:29.587Z,31.20
2018-09-09T13:48:58.845Z,31.30
2018-09-09T13:51:28.095Z,31.40
2018-09-09T13:53:57.474Z,30.90
2018-09-09T13:56:26.766Z,30.80
2018-09-09T13:58:56.130Z,31.00
2018-09-09T14:01:25.419Z,30.10
2018-09-09T14:06:23.487Z,29.30
2018-09-09T14:08:52.754Z,29.50
2018-09-09T14:11:23.687Z,29.40
2018-09-09T14:13:52.887Z,29.50
2018-09-09T14:16:22.150Z,29.70
2018-09-09T14:18:51.432Z,29.80
2018-09-09T14:21:20.743Z,29.70
2018-09-09T14:23:50.006Z,29.40
2018-09-09T14:26:19.246Z,29.30
2018-09-09T14:28:48.502Z,29.40
2018-09-09T14:31:17.763Z,29.60
2018-09-09T14:33:47.194Z,29.60
2018-09-09T14:36:16.420Z,29.50
2018-09-09T14:38:45.626Z,29.70
2018-09-09T14:41:14.874Z,29.90
2018-09-09T14:43:44.100Z,30.20
2018-09-09T14:46:13.458Z,30.30
2018-09-09T14:48:42.702Z,30.00
2018-09-09T14:51:11.986Z,30.00
2018-09-09T14:53:41.240Z,30.10
2018-09-09T14:56:10.578Z,29.50
2018-09-09T14:58:39.991Z,29.40
2018-09-09T15:01:09.366Z,29.20
2018-09-09T15:03:38.722Z,29.20
2018-09-09T15:06:08.058Z,28.90
2018-09-09T15:08:37.297Z,28.80
2018-09-09T15:11:06.880Z,29.10
2018-09-09T15:13:36.076Z,29.30
2018-09-09T15:16:05.347Z,29.10
2018-09-09T15:18:34.604Z,29.10
2018-09-09T15:21:03.903Z,28.80
2018-09-09T15:23:33.155Z,28.70
2018-09-09T15:26:02.427Z,28.70
2018-09-09T15:28:31.579Z,28.70
2018-09-09T15:31:00.805Z,28.80
2018-09-09T15:33:30.112Z,28.90
2018-09-09T15:35:59.451Z,28.80
2018-09-09T15:38:28.802Z,28.80
2018-09-09T15:40:58.110Z,28.50
2018-09-09T15:43:27.478Z,28.50
2018-09-09T15:45:56.891Z,28.40
2018-09-09T15:48:26.290Z,28.30
2018-09-09T15:50:55.573Z,28.20
2018-09-09T15:53:24.898Z,28.00
2018-09-09T15:55:54.162Z,27.60
2018-09-09T15:58:23.399Z,27.50
2018-09-09T16:00:52.731Z,27.20
2018-09-09T16:03:22.023Z,27.10
2018-09-09T16:05:51.318Z,27.10
2018-09-09T16:08:20.578Z,27.20
2018-09-09T16:10:49.866Z,27.30
2018-09-09T16:13:19.376Z,27.20
2018-09-09T16:15:48.647Z,26.80
2018-09-09T16:18:17.946Z,26.70
2018-09-09T16:20:47.278Z,26.80
2018-09-09T16:23:16.689Z,26.70
2018-09-09T16:25:45.921Z,26.60
2018-09-09T16:28:15.186Z,26.60
2018-09-09T16:30:44.447Z,26.70
2018-09-09T16:33:13.796Z,26.60
2018-09-09T16:35:42.991Z,26.50
2018-09-09T16:38:12.271Z,26.40
2018-09-09T16:40:41.563Z,26.10
2018-09-09T16:43:10.887Z,26.00
2018-09-09T16:45:40.210Z,25.90
2018-09-09T16:48:09.475Z,25.80
2018-09-09T16:50:38.792Z,25.90
2018-09-09T16:53:08.108Z,25.90
2018-09-09T16:55:37.375Z,26.00
2018-09-09T16:58:06.739Z,26.10
2018-09-09T17:00:35.996Z,25.90
2018-09-09T17:03:05.224Z,25.90
2018-09-09T17:05:34.464Z,25.80
2018-09-09T17:08:03.825Z,25.70
2018-09-09T17:10:33.060Z,25.40
2018-09-09T17:13:02.378Z,25.30
2018-09-09T17:15:31.630Z,25.10
2018-09-09T17:18:00.999Z,24.90
2018-09-09T17:20:30.247Z,24.70
2018-09-09T17:22:59.510Z,24.30
2018-09-09T17:25:28.819Z,24.00
2018-09-09T17:27:58.715Z,23.70
2018-09-09T17:30:27.950Z,23.40
2018-09-09T17:32:57.319Z,23.20
2018-09-09T17:35:26.653Z,23.20
2018-09-09T17:37:55.970Z,23.00
2018-09-09T17:40:26.116Z,22.90
2018-09-09T17:42:55.421Z,22.80
2018-09-09T17:45:24.694Z,22.60
2018-09-09T17:47:54.101Z,22.50
2018-09-09T17:50:23.316Z,22.40
2018-09-09T17:52:52.704Z,22.30
2018-09-09T17:55:22.015Z,22.20
2018-09-09T17:57:51.338Z,21.90
2018-09-09T18:00:20.733Z,21.70
2018-09-09T18:02:49.975Z,21.70
2018-09-09T18:05:19.294Z,21.70
2018-09-09T18:07:48.670Z,21.70
2018-09-09T18:10:18.027Z,21.50
2018-09-09T18:12:47.294Z,21.40
2018-09-09T18:15:16.638Z,21.20
2018-09-09T18:17:45.938Z,21.00
2018-09-09T18:20:15.235Z,20.70
2018-09-09T18:22:44.592Z,20.60
2018-09-09T18:25:13.966Z,20.40
2018-09-09T18:27:43.260Z,20.40
2018-09-09T18:30:12.551Z,20.40
2018-09-09T18:32:41.808Z,20.30
2018-09-09T18:35:11.146Z,20.20
2018-09-09T18:37:40.428Z,20.10
2018-09-09T18:40:09.795Z,20.10
2018-09-09T18:42:39.081Z,19.80
2018-09-09T18:45:09.215Z,19.70
2018-09-09T18:47:38.565Z,19.60
2018-09-09T18:50:07.905Z,19.40
2018-09-09T18:52:37.184Z,19.40
2018-09-09T18:55:06.605Z,19.30
2018-09-09T18:57:35.874Z,19.20
2018-09-09T19:00:05.442Z,19.10
2018-09-09T19:02:34.701Z,19.00
2018-09-09T19:05:04.043Z,18.90
2018-09-09T19:07:33.339Z,18.90
2018-09-09T19:10:02.712Z,18.80
2018-09-09T19:12:31.998Z,18.70
2018-09-09T19:15:01.299Z,18.70
2018-09-09T19:17:30.531Z,18.40
2018-09-09T19:19:59.868Z,18.30
2018-09-09T19:22:29.226Z,18.30
2018-09-09T19:24:58.551Z,18.20
2018-09-09T19:27:27.905Z,18.10
2018-09-09T19:29:57.206Z,18.10
2018-09-09T19:32:26.494Z,18.00
2018-09-09T19:34:55.926Z,17.90
2018-09-09T19:37:25.264Z,17.70
2018-09-09T19:39:54.579Z,17.50
2018-09-09T19:42:23.926Z,17.50
2018-09-09T19:44:53.210Z,17.50
2018-09-09T19:47:22.667Z,17.40
2018-09-09T19:49:51.961Z,17.20
2018-09-09T19:52:21.331Z,17.20
2018-09-09T19:54:50.638Z,17.00
2018-09-09T19:57:19.953Z,17.00
2018-09-09T19:59:49.190Z,16.90
2018-09-09T20:02:18.589Z,16.80
2018-09-09T20:04:47.951Z,16.70
2018-09-09T20:07:17.262Z,16.70
2018-09-09T20:09:46.546Z,16.70
2018-09-09T20:12:15.868Z,16.60
2018-09-09T20:14:45.174Z,16.60
2018-09-09T20:17:14.491Z,16.50
2018-09-09T20:19:43.717Z,16.50
2018-09-09T20:22:13.282Z,16.40
2018-09-09T20:24:42.623Z,16.40
2018-09-09T20:27:11.952Z,16.30
2018-09-09T20:29:41.229Z,16.30
2018-09-09T20:32:10.559Z,16.10
2018-09-09T20:34:39.855Z,15.70
2018-09-09T20:37:09.223Z,15.60
2018-09-09T20:39:38.438Z,15.40
2018-09-09T20:42:07.771Z,15.30
2018-09-09T20:44:37.054Z,15.10
2018-09-09T20:47:06.664Z,15.10
2018-09-09T20:49:35.914Z,15.00
2018-09-09T20:52:05.315Z,15.00
2018-09-09T20:54:34.567Z,14.90
2018-09-09T20:57:03.811Z,15.00
2018-09-09T20:59:33.092Z,15.00
2018-09-09T21:02:02.512Z,15.00
2018-09-09T21:04:31.778Z,14.90
2018-09-09T21:07:01.138Z,14.80
2018-09-09T21:09:30.488Z,14.70
2018-09-09T21:11:59.800Z,14.70
2018-09-09T21:14:29.126Z,14.50
2018-09-09T21:16:58.396Z,14.60
2018-09-09T21:19:27.670Z,14.50
2018-09-09T21:21:56.991Z,14.50
2018-09-09T21:24:26.350Z,14.40
2018-09-09T21:26:55.654Z,14.30
2018-09-09T21:29:24.960Z,14.30
2018-09-09T21:31:54.251Z,14.40
2018-09-09T21:34:23.588Z,14.40
2018-09-09T21:36:52.893Z,14.40
2018-09-09T21:39:22.222Z,14.30
2018-09-09T21:41:51.395Z,14.20
2018-09-09T21:44:20.751Z,14.00
2018-09-09T21:46:50.059Z,13.80
2018-09-09T21:49:19.923Z,13.70
2018-09-09T21:51:49.278Z,13.60
2018-09-09T21:54:18.618Z,13.40
2018-09-09T21:56:47.919Z,13.50
2018-09-09T21:59:17.246Z,13.30
2018-09-09T22:01:51.486Z,13.40
2018-09-09T22:04:20.783Z,13.40
2018-09-09T22:06:50.390Z,13.40
2018-09-09T22:09:19.693Z,13.40
2018-09-09T22:11:48.946Z,13.20
2018-09-09T22:14:18.202Z,13.10
2018-09-09T22:16:47.435Z,13.00
2018-09-09T22:19:16.739Z,13.00
2018-09-09T22:21:48.550Z,13.00
2018-09-09T22:24:19.765Z,12.90
2018-09-09T22:26:49.406Z,12.90
2018-09-09T22:29:18.682Z,12.80
2018-09-09T22:31:47.998Z,12.80
2018-09-09T22:34:17.363Z,12.90
2018-09-09T22:36:46.700Z,13.00
2018-09-09T22:39:16.021Z,13.00
2018-09-09T22:41:45.391Z,13.00
2018-09-09T22:44:14.982Z,12.90
2018-09-09T22:46:44.341Z,12.80
2018-09-09T22:49:13.644Z,12.70
2018-09-09T22:51:42.921Z,12.70
2018-09-09T22:54:12.268Z,12.70
2018-09-09T22:56:41.590Z,12.80
2018-09-09T22:59:10.967Z,12.80
2018-09-09T23:01:40.170Z,12.70
2018-09-09T23:04:09.538Z,12.50
2018-09-09T23:06:38.863Z,12.50
2018-09-09T23:09:10.766Z,12.40
2018-09-09T23:11:40.074Z,12.30
2018-09-09T23:14:09.591Z,12.30
2018-09-09T23:16:38.995Z,12.20
2018-09-09T23:19:08.305Z,12.20
2018-09-09T23:21:37.662Z,12.20
2018-09-09T23:24:07.097Z,12.20
2018-09-09T23:26:36.374Z,12.30
2018-09-09T23:29:05.767Z,12.30
2018-09-09T23:31:35.079Z,12.40
2018-09-09T23:34:04.339Z,12.20
2018-09-09T23:36:33.691Z,12.00
2018-09-09T23:39:03.000Z,12.00
2018-09-09T23:41:32.294Z,11.90
2018-09-09T23:44:01.526Z,11.90
2018-09-09T23:46:30.869Z,11.80
2018-09-09T23:49:00.165Z,11.90
2018-09-09T23:51:29.535Z,11.90
2018-09-09T23:53:58.817Z,11.80
2018-09-09T23:56:28.075Z,11.70
2018-09-09T23:58:57.319Z,11.80
